createdAt,value
2019-03-11T00:00:56.839Z,93.07
2019-03-11T00:01:59.492Z,92.86
2019-03-11T00:03:02.311Z,93.63
2019-03-11T00:04:06.164Z,92.70
2019-03-11T00:05:09.568Z,92.61
2019-03-11T00:06:15.037Z,92.05
2019-03-11T00:07:17.777Z,92.51
2019-03-11T00:08:20.540Z,92.51
2019-03-11T00:09:23.699Z,91.47
2019-03-11T00:10:26.447Z,91.91
2019-03-11T00:11:29.474Z,92.10
2019-03-11T00:12:32.153Z,91.04
2019-03-11T00:13:34.821Z,91.04
2019-03-11T00:14:37.504Z,91.60
2019-03-11T00:15:40.259Z,91.68
2019-03-11T00:16:43.099Z,91.83
2019-03-11T00:17:49.337Z,90.68
2019-03-11T00:18:52.056Z,90.68
2019-03-11T00:19:54.730Z,90.82
2019-03-11T00:20:57.847Z,90.79
2019-03-11T00:22:00.517Z,90.61
2019-03-11T00:23:03.252Z,90.22
2019-03-11T00:24:06.232Z,89.84
2019-03-11T00:25:08.952Z,90.30
2019-03-11T00:26:11.616Z,90.30
2019-03-11T00:27:14.708Z,90.07
2019-03-11T00:28:17.459Z,90.00
2019-03-11T00:29:20.153Z,89.57
2019-03-11T00:30:26.275Z,89.39
2019-03-11T00:31:29.415Z,88.63
2019-03-11T00:32:32.186Z,88.65
2019-03-11T00:33:34.931Z,88.17
2019-03-11T00:34:37.601Z,88.17
2019-03-11T00:35:40.246Z,88.50
2019-03-11T00:36:43.302Z,88.50
2019-03-11T00:37:45.991Z,88.33
2019-03-11T00:38:48.700Z,88.74
2019-03-11T00:39:51.449Z,88.77
2019-03-11T00:40:54.141Z,88.73
2019-03-11T00:41:56.848Z,88.79
2019-03-11T00:44:27.297Z,88.01
2019-03-11T00:45:29.983Z,88.01
2019-03-11T00:46:32.641Z,86.52
2019-03-11T00:47:35.338Z,87.01
2019-03-11T00:48:38.076Z,87.01
2019-03-11T00:49:41.068Z,86.74
2019-03-11T00:50:43.857Z,86.66
2019-03-11T00:51:46.538Z,86.66
2019-03-11T00:52:49.295Z,86.67
2019-03-11T00:53:52.343Z,86.67
2019-03-11T00:54:55.148Z,86.33
2019-03-11T00:55:58.241Z,86.33
2019-03-11T00:57:00.939Z,85.87
2019-03-11T00:58:03.578Z,85.58
2019-03-11T00:59:06.229Z,85.60
2019-03-11T01:00:09.279Z,85.57
2019-03-11T01:01:11.945Z,86.15
2019-03-11T01:02:14.686Z,86.15
2019-03-11T01:03:17.368Z,85.59
2019-03-11T01:04:20.538Z,85.79
2019-03-11T01:05:23.278Z,85.15
2019-03-11T01:06:26.672Z,84.78
2019-03-11T01:07:29.332Z,84.76
2019-03-11T01:08:31.981Z,84.58
2019-03-11T01:09:34.717Z,84.14
2019-03-11T01:10:37.446Z,83.76
2019-03-11T01:11:40.117Z,84.21
2019-03-11T01:12:43.070Z,83.84
2019-03-11T01:13:45.798Z,83.84
2019-03-11T01:14:48.508Z,83.70
2019-03-11T01:15:51.199Z,84.66
2019-03-11T01:16:53.884Z,84.56
2019-03-11T01:17:56.994Z,84.44
2019-03-11T01:19:00.337Z,84.64
2019-03-11T01:20:03.012Z,85.65
2019-03-11T01:21:05.794Z,85.92
2019-03-11T01:22:08.467Z,86.87
2019-03-11T01:23:11.110Z,86.86
2019-03-11T01:24:13.798Z,88.34
2019-03-11T01:25:16.772Z,87.90
2019-03-11T01:26:19.578Z,90.14
2019-03-11T01:27:22.278Z,91.35
2019-03-11T01:28:25.450Z,91.35
2019-03-11T01:29:28.114Z,92.90
2019-03-11T01:30:30.876Z,96.03
2019-03-11T01:31:34.132Z,96.03
2019-03-11T01:32:36.882Z,96.05
2019-03-11T01:33:39.923Z,97.44
2019-03-11T01:34:42.643Z,97.63
2019-03-11T01:35:45.403Z,98.47
2019-03-11T01:36:48.155Z,99.38
2019-03-11T01:37:51.146Z,99.42
2019-03-11T01:38:53.877Z,99.84
2019-03-11T01:39:56.688Z,99.79
2019-03-11T01:40:59.804Z,99.91
2019-03-11T01:42:02.586Z,100.00
2019-03-11T01:43:05.630Z,100.00
2019-03-11T01:44:08.285Z,100.00
2019-03-11T01:45:10.945Z,100.00
2019-03-11T01:46:13.627Z,100.00
2019-03-11T01:47:16.371Z,100.00
2019-03-11T01:48:21.886Z,100.00
2019-03-11T01:49:24.663Z,100.00
2019-03-11T01:50:27.618Z,100.00
2019-03-11T01:51:30.319Z,100.00
2019-03-11T01:52:33.047Z,100.00
2019-03-11T01:53:35.706Z,100.00
2019-03-11T01:54:38.470Z,100.00
2019-03-11T01:55:41.192Z,100.00
2019-03-11T01:56:44.172Z,100.00
2019-03-11T01:57:46.857Z,100.00
2019-03-11T01:58:51.778Z,100.00
2019-03-11T01:59:54.487Z,100.00
2019-03-11T02:00:57.696Z,100.00
2019-03-11T02:02:00.798Z,100.00
2019-03-11T02:03:03.934Z,100.00
2019-03-11T02:04:08.382Z,100.00
2019-03-11T02:05:11.086Z,100.00
2019-03-11T02:06:13.953Z,100.00
2019-03-11T02:07:20.098Z,100.00
2019-03-11T02:08:22.752Z,100.00
2019-03-11T02:09:26.026Z,100.00
2019-03-11T02:10:30.468Z,100.00
2019-03-11T02:11:33.235Z,100.00
2019-03-11T02:12:36.088Z,100.00
2019-03-11T02:13:38.925Z,100.00
2019-03-11T02:14:41.735Z,100.00
2019-03-11T02:15:44.787Z,100.00
2019-03-11T02:16:47.526Z,100.00
2019-03-11T02:17:50.211Z,99.97
2019-03-11T02:18:53.898Z,99.78
2019-03-11T02:19:56.697Z,99.93
2019-03-11T02:21:01.262Z,100.00
2019-03-11T02:22:04.750Z,99.62
2019-03-11T02:23:08.801Z,99.69
2019-03-11T02:24:11.558Z,99.69
2019-03-11T02:25:14.215Z,99.97
2019-03-11T02:26:19.671Z,99.97
2019-03-11T02:27:22.422Z,99.24
2019-03-11T02:28:25.387Z,99.59
2019-03-11T02:29:28.456Z,99.54
2019-03-11T02:30:31.148Z,99.76
2019-03-11T02:31:33.963Z,99.76
2019-03-11T02:32:36.770Z,99.60
2019-03-11T02:33:39.498Z,99.80
2019-03-11T02:34:45.568Z,99.48
2019-03-11T02:35:52.401Z,99.63
2019-03-11T02:36:55.117Z,99.63
2019-03-11T02:38:00.229Z,99.48
2019-03-11T02:39:03.343Z,99.61
2019-03-11T02:40:08.852Z,99.61
2019-03-11T02:41:12.810Z,99.33
2019-03-11T02:42:15.471Z,99.32
2019-03-11T02:43:18.222Z,99.07
2019-03-11T02:44:22.267Z,99.07
2019-03-11T02:45:24.992Z,98.98
2019-03-11T02:46:27.791Z,99.03
2019-03-11T02:47:31.127Z,99.16
2019-03-11T02:48:37.066Z,99.42
2019-03-11T02:49:44.253Z,99.83
2019-03-11T02:50:44.256Z,98.93
2019-03-11T02:51:49.222Z,98.58
2019-03-11T02:52:53.062Z,98.25
2019-03-11T02:53:56.045Z,98.35
2019-03-11T02:54:58.810Z,98.49
2019-03-11T02:56:01.649Z,98.37
2019-03-11T02:57:10.438Z,98.37
2019-03-11T02:58:13.114Z,99.25
2019-03-11T02:59:18.463Z,99.22
2019-03-11T03:00:23.637Z,98.80
2019-03-11T03:01:54.338Z,98.80
2019-03-11T03:03:19.544Z,99.05
2019-03-11T03:04:26.114Z,99.34
2019-03-11T03:05:47.991Z,99.47
2019-03-11T03:06:50.673Z,99.58
2019-03-11T03:07:56.444Z,99.58
2019-03-11T03:08:59.518Z,99.83
2019-03-11T03:10:02.366Z,100.00
2019-03-11T03:11:05.118Z,99.73
2019-03-11T03:12:08.155Z,99.79
2019-03-11T03:13:13.187Z,100.00
2019-03-11T03:14:15.902Z,99.93
2019-03-11T03:15:20.874Z,99.71
2019-03-11T03:16:23.607Z,99.62
2019-03-11T03:17:35.255Z,100.00
2019-03-11T03:18:38.311Z,99.85
2019-03-11T03:19:41.457Z,100.00
2019-03-11T03:20:44.203Z,100.00
2019-03-11T03:21:46.941Z,100.00
2019-03-11T03:22:50.054Z,100.00
2019-03-11T03:23:52.834Z,100.00
2019-03-11T03:24:56.187Z,100.00
2019-03-11T03:26:01.028Z,99.55
2019-03-11T03:27:03.409Z,98.62
2019-03-11T03:28:06.711Z,98.60
2019-03-11T03:29:09.635Z,98.76
2019-03-11T03:30:12.353Z,98.91
2019-03-11T03:31:15.378Z,98.84
2019-03-11T03:32:18.287Z,98.78
2019-03-11T03:33:21.064Z,98.92
2019-03-11T03:34:23.838Z,99.42
2019-03-11T03:35:26.534Z,99.42
2019-03-11T03:36:29.197Z,99.13
2019-03-11T03:37:32.196Z,99.03
2019-03-11T03:38:34.956Z,99.03
2019-03-11T03:39:38.177Z,98.53
2019-03-11T03:40:40.850Z,98.52
2019-03-11T03:41:43.576Z,98.95
2019-03-11T03:42:46.382Z,98.82
2019-03-11T03:43:57.176Z,98.83
2019-03-11T03:45:00.015Z,98.89
2019-03-11T03:46:17.407Z,99.43
2019-03-11T03:47:10.045Z,99.20
2019-03-11T03:48:12.731Z,99.41
2019-03-11T03:49:15.505Z,99.09
2019-03-11T03:50:18.564Z,98.58
2019-03-11T03:51:27.374Z,98.61
2019-03-11T03:52:32.367Z,98.15
2019-03-11T03:53:35.048Z,98.52
2019-03-11T03:54:37.798Z,98.07
2019-03-11T03:55:40.519Z,98.07
2019-03-11T03:56:43.530Z,97.55
2019-03-11T03:57:49.093Z,97.09
2019-03-11T03:58:53.704Z,96.59
2019-03-11T03:59:56.426Z,96.59
2019-03-11T04:01:02.007Z,96.41
2019-03-11T04:02:04.729Z,96.83
2019-03-11T04:03:07.727Z,97.37
2019-03-11T04:04:13.726Z,97.38
2019-03-11T04:05:16.509Z,97.45
2019-03-11T04:06:22.623Z,97.45
2019-03-11T04:07:25.323Z,96.81
2019-03-11T04:08:28.297Z,97.15
2019-03-11T04:09:31.246Z,97.17
2019-03-11T04:10:35.278Z,96.77
2019-03-11T04:11:41.053Z,96.44
2019-03-11T04:12:43.717Z,96.50
2019-03-11T04:13:46.486Z,96.59
2019-03-11T04:14:49.212Z,96.67
2019-03-11T04:15:54.698Z,96.83
2019-03-11T04:16:57.430Z,97.42
2019-03-11T04:18:00.195Z,97.42
2019-03-11T04:19:06.848Z,96.84
2019-03-11T04:20:09.972Z,96.39
2019-03-11T04:21:12.801Z,96.00
2019-03-11T04:22:18.578Z,96.58
2019-03-11T04:23:21.258Z,95.61
2019-03-11T04:24:26.467Z,94.91
2019-03-11T04:25:31.373Z,94.35
2019-03-11T04:26:34.137Z,95.47
2019-03-11T04:27:38.252Z,95.47
2019-03-11T04:28:41.260Z,95.58
2019-03-11T04:29:44.075Z,95.33
2019-03-11T04:30:46.741Z,95.85
2019-03-11T04:31:49.507Z,95.62
2019-03-11T04:32:56.271Z,96.10
2019-03-11T04:34:02.132Z,95.97
2019-03-11T04:35:06.375Z,95.39
2019-03-11T04:36:09.116Z,95.63
2019-03-11T04:37:11.859Z,94.75
2019-03-11T04:38:14.620Z,95.20
2019-03-11T04:39:17.290Z,95.09
2019-03-11T04:40:20.033Z,94.84
2019-03-11T04:41:23.080Z,94.60
2019-03-11T04:42:25.821Z,94.75
2019-03-11T04:43:28.516Z,93.43
2019-03-11T04:44:31.165Z,92.82
2019-03-11T04:45:33.875Z,92.90
2019-03-11T04:46:36.970Z,93.81
2019-03-11T04:47:40.192Z,93.81
2019-03-11T04:48:42.954Z,94.45
2019-03-11T04:49:45.820Z,93.79
2019-03-11T04:50:50.965Z,93.26
2019-03-11T04:51:53.712Z,93.06
2019-03-11T04:52:56.385Z,93.83
2019-03-11T04:54:02.932Z,93.83
2019-03-11T04:55:05.603Z,93.15
2019-03-11T04:56:08.282Z,92.82
2019-03-11T04:57:10.937Z,92.82
2019-03-11T04:58:13.690Z,92.72
2019-03-11T04:59:16.839Z,91.88
2019-03-11T05:00:22.037Z,92.73
2019-03-11T05:01:24.840Z,92.43
2019-03-11T05:02:29.448Z,92.14
2019-03-11T05:03:34.905Z,92.35
2019-03-11T05:04:40.114Z,92.09
2019-03-11T05:05:42.812Z,91.86
2019-03-11T05:06:48.533Z,92.46
2019-03-11T05:07:51.654Z,91.64
2019-03-11T05:08:54.532Z,92.13
2019-03-11T05:09:57.211Z,92.13
2019-03-11T05:10:59.961Z,91.82
2019-03-11T05:12:04.917Z,92.39
2019-03-11T05:13:11.171Z,91.69
2019-03-11T05:14:17.275Z,92.53
2019-03-11T05:15:21.925Z,92.72
2019-03-11T05:16:24.667Z,93.32
2019-03-11T05:17:31.835Z,93.32
2019-03-11T05:18:34.649Z,93.65
2019-03-11T05:19:40.142Z,93.75
2019-03-11T05:20:45.981Z,93.75
2019-03-11T05:21:48.736Z,92.50
2019-03-11T05:22:54.948Z,92.50
2019-03-11T05:23:57.999Z,92.98
2019-03-11T05:25:00.799Z,93.10
2019-03-11T05:26:06.344Z,93.62
2019-03-11T05:27:09.242Z,93.06
2019-03-11T05:28:12.619Z,92.52
2019-03-11T05:29:17.901Z,91.44
2019-03-11T05:30:20.619Z,92.16
2019-03-11T05:31:23.350Z,91.63
2019-03-11T05:32:28.008Z,92.39
2019-03-11T05:33:31.018Z,92.29
2019-03-11T05:34:33.699Z,92.29
2019-03-11T05:35:39.389Z,92.56
2019-03-11T05:36:42.433Z,92.30
2019-03-11T05:37:45.108Z,92.40
2019-03-11T05:38:51.453Z,92.78
2019-03-11T05:39:57.391Z,92.78
2019-03-11T05:41:02.925Z,92.49
2019-03-11T05:42:05.620Z,91.49
2019-03-11T05:43:11.120Z,91.69
2019-03-11T05:44:16.607Z,91.73
2019-03-11T05:45:19.914Z,91.58
2019-03-11T05:46:22.982Z,91.58
2019-03-11T05:47:25.702Z,91.30
2019-03-11T05:48:30.116Z,91.63
2019-03-11T05:49:44.971Z,92.08
2019-03-11T05:50:47.960Z,92.63
2019-03-11T05:51:51.786Z,92.63
2019-03-11T05:52:54.602Z,92.50
2019-03-11T05:53:57.372Z,92.06
2019-03-11T05:55:00.552Z,92.19
2019-03-11T05:56:03.347Z,92.19
2019-03-11T05:57:06.453Z,92.77
2019-03-11T05:58:09.397Z,93.47
2019-03-11T05:59:12.585Z,93.51
2019-03-11T06:00:16.510Z,94.02
2019-03-11T06:01:19.216Z,92.89
2019-03-11T06:02:22.003Z,92.89
2019-03-11T06:03:27.291Z,93.46
2019-03-11T06:04:30.629Z,92.71
2019-03-11T06:05:33.526Z,92.71
2019-03-11T06:06:36.262Z,92.27
2019-03-11T06:07:39.427Z,93.12
2019-03-11T06:08:42.149Z,93.98
2019-03-11T06:09:45.145Z,93.86
2019-03-11T06:10:47.877Z,93.86
2019-03-11T06:11:50.892Z,92.98
2019-03-11T06:12:54.935Z,92.98
2019-03-11T06:13:58.288Z,92.99
2019-03-11T06:15:01.419Z,92.99
2019-03-11T06:16:04.415Z,92.26
2019-03-11T06:17:07.254Z,92.13
2019-03-11T06:18:10.081Z,92.13
2019-03-11T06:19:17.727Z,91.65
2019-03-11T06:20:37.925Z,91.91
2019-03-11T06:21:50.502Z,91.91
2019-03-11T06:22:53.187Z,91.90
2019-03-11T06:23:55.983Z,92.39
2019-03-11T06:24:59.140Z,92.37
2019-03-11T06:26:01.838Z,92.60
2019-03-11T06:27:04.599Z,92.08
2019-03-11T06:28:09.490Z,92.09
2019-03-11T06:29:12.278Z,92.22
2019-03-11T06:43:56.251Z,89.54
2019-03-11T06:44:59.508Z,90.09
2019-03-11T06:46:02.381Z,90.09
2019-03-11T06:47:05.223Z,90.00
2019-03-11T06:48:08.375Z,88.94
2019-03-11T06:49:11.566Z,88.67
2019-03-11T06:50:14.328Z,89.58
2019-03-11T06:51:17.138Z,88.92
2019-03-11T06:52:19.870Z,88.92
2019-03-11T06:53:23.125Z,89.29
2019-03-11T06:54:25.917Z,89.19
2019-03-11T06:55:28.995Z,89.71
2019-03-11T06:56:34.576Z,89.71
2019-03-11T06:57:40.297Z,90.89
2019-03-11T06:58:47.616Z,92.82
2019-03-11T06:59:47.754Z,93.44
2019-03-11T07:00:51.449Z,94.82
2019-03-11T07:01:54.561Z,94.82
2019-03-11T07:02:57.226Z,95.92
2019-03-11T07:03:59.951Z,97.07
2019-03-11T07:05:03.094Z,97.07
2019-03-11T07:06:06.176Z,97.58
2019-03-11T07:07:10.585Z,98.55
2019-03-11T07:08:27.635Z,98.57
2019-03-11T07:09:30.443Z,98.92
2019-03-11T07:10:33.134Z,98.74
2019-03-11T07:11:35.849Z,98.74
2019-03-11T07:12:38.776Z,99.33
2019-03-11T07:13:43.863Z,99.67
2019-03-11T07:14:47.045Z,99.34
2019-03-11T07:15:52.906Z,98.90
2019-03-11T07:16:55.584Z,97.85
2019-03-11T07:17:58.684Z,97.79
2019-03-11T07:19:01.356Z,96.82
2019-03-11T07:20:04.625Z,95.69
2019-03-11T07:21:09.780Z,95.67
2019-03-11T07:22:14.503Z,95.41
2019-03-11T07:23:16.919Z,96.08
2019-03-11T07:24:20.004Z,96.08
2019-03-11T07:25:25.183Z,95.33
2019-03-11T07:26:30.162Z,95.33
2019-03-11T07:27:33.359Z,95.17
2019-03-11T07:28:36.413Z,95.33
2019-03-11T07:29:39.093Z,95.34
2019-03-11T07:30:45.812Z,95.34
2019-03-11T07:31:48.479Z,94.52
2019-03-11T07:32:51.228Z,94.27
2019-03-11T07:33:58.860Z,94.26
2019-03-11T07:35:08.415Z,93.37
2019-03-11T07:36:06.470Z,94.01
2019-03-11T07:37:12.023Z,94.01
2019-03-11T07:38:14.844Z,95.23
2019-03-11T07:39:17.995Z,94.65
2019-03-11T07:40:29.748Z,94.77
2019-03-11T07:41:29.237Z,94.77
2019-03-11T07:42:34.292Z,94.74
2019-03-11T07:43:37.011Z,95.37
2019-03-11T07:44:39.896Z,95.37
2019-03-11T07:45:43.565Z,96.95
2019-03-11T07:46:47.075Z,96.65
2019-03-11T07:47:50.365Z,97.00
2019-03-11T07:48:53.084Z,98.65
2019-03-11T07:49:55.790Z,98.92
2019-03-11T07:50:58.474Z,99.62
2019-03-11T07:52:02.659Z,99.62
2019-03-11T07:53:06.209Z,99.74
2019-03-11T07:54:10.001Z,99.88
2019-03-11T07:55:12.825Z,99.37
2019-03-11T07:56:16.048Z,99.37
2019-03-11T07:57:19.361Z,97.95
2019-03-11T07:58:22.537Z,97.43
2019-03-11T07:59:25.264Z,97.61
2019-03-11T08:00:28.187Z,97.68
2019-03-11T08:01:48.726Z,98.07
2019-03-11T08:02:57.810Z,98.93
2019-03-11T08:04:00.683Z,98.57
2019-03-11T08:05:03.778Z,98.57
2019-03-11T08:06:14.831Z,99.63
2019-03-11T08:07:11.321Z,99.79
2019-03-11T08:08:14.028Z,99.56
2019-03-11T08:09:17.036Z,98.91
2019-03-11T08:10:22.506Z,99.14
2019-03-11T08:11:28.972Z,99.45
2019-03-11T08:12:33.387Z,99.11
2019-03-11T08:13:36.174Z,98.94
2019-03-11T08:14:39.298Z,99.37
2019-03-11T08:15:42.007Z,98.95
2019-03-11T08:16:46.228Z,98.46
2019-03-11T08:17:49.427Z,98.46
2019-03-11T08:18:52.244Z,98.33
2019-03-11T08:19:55.324Z,98.60
2019-03-11T08:20:58.740Z,97.95
2019-03-11T08:22:01.435Z,97.95
2019-03-11T08:23:07.321Z,97.25
2019-03-11T08:24:10.409Z,97.12
2019-03-11T08:25:16.045Z,96.82
2019-03-11T08:26:20.188Z,97.07
2019-03-11T08:27:22.860Z,97.07
2019-03-11T08:28:25.663Z,97.85
2019-03-11T08:29:29.092Z,97.92
2019-03-11T08:30:32.164Z,97.71
2019-03-11T08:31:38.516Z,97.82
2019-03-11T08:32:41.278Z,97.82
2019-03-11T08:33:44.125Z,98.17
2019-03-11T08:34:46.890Z,98.17
2019-03-11T08:35:55.205Z,98.21
2019-03-11T08:36:57.254Z,98.21
2019-03-11T08:38:05.226Z,98.03
2019-03-11T08:39:06.871Z,98.03
2019-03-11T08:40:09.803Z,98.24
2019-03-11T08:41:12.630Z,98.77
2019-03-11T08:42:15.903Z,98.85
2019-03-11T08:43:19.153Z,98.52
2019-03-11T08:44:40.698Z,98.32
2019-03-11T08:45:43.651Z,98.41
2019-03-11T08:46:46.493Z,98.41
2019-03-11T08:47:50.223Z,97.09
2019-03-11T08:48:56.134Z,97.14
2019-03-11T08:50:01.363Z,96.92
2019-03-11T08:51:04.272Z,96.99
2019-03-11T08:52:07.114Z,96.99
2019-03-11T08:53:09.909Z,96.72
2019-03-11T08:54:14.440Z,96.15
2019-03-11T08:55:17.597Z,94.53
2019-03-11T08:56:23.269Z,95.10
2019-03-11T08:57:28.809Z,94.95
2019-03-11T08:58:31.700Z,94.51
2019-03-11T08:59:34.386Z,94.27
2019-03-11T09:00:37.290Z,94.09
2019-03-11T09:02:03.127Z,94.09
2019-03-11T09:02:45.410Z,94.61
2019-03-11T09:03:53.800Z,94.84
2019-03-11T09:04:56.688Z,94.00
2019-03-11T09:06:03.168Z,94.46
2019-03-11T09:07:07.452Z,94.22
2019-03-11T09:08:14.220Z,93.93
2019-03-11T09:09:22.708Z,93.52
2019-03-11T09:10:27.854Z,93.68
2019-03-11T09:11:30.803Z,93.68
2019-03-11T09:12:33.859Z,93.63
2019-03-11T09:13:42.246Z,93.63
2019-03-11T09:14:49.255Z,93.82
2019-03-11T09:15:53.026Z,93.70
2019-03-11T09:16:56.380Z,93.70
2019-03-11T09:18:05.492Z,95.15
2019-03-11T09:19:08.746Z,95.15
2019-03-11T09:20:13.761Z,95.42
2019-03-11T09:21:16.776Z,96.28
2019-03-11T09:22:19.741Z,96.66
2019-03-11T09:23:22.722Z,96.66
2019-03-11T09:24:25.525Z,97.26
2019-03-11T09:25:28.372Z,98.05
2019-03-11T09:26:31.107Z,98.08
2019-03-11T09:27:36.098Z,98.71
2019-03-11T09:28:38.925Z,100.00
2019-03-11T09:29:41.902Z,100.00
2019-03-11T09:30:44.754Z,100.00
2019-03-11T09:31:47.645Z,100.00
2019-03-11T09:32:52.921Z,100.00
2019-03-11T09:34:03.687Z,100.00
2019-03-11T09:35:08.270Z,100.00
2019-03-11T09:36:20.104Z,100.00
2019-03-11T09:37:24.663Z,100.00
2019-03-11T09:38:30.263Z,100.00
2019-03-11T09:39:40.551Z,100.00
2019-03-11T09:40:43.776Z,100.00
2019-03-11T09:41:47.090Z,100.00
2019-03-11T09:42:52.089Z,99.86
2019-03-11T09:43:55.379Z,99.86
2019-03-11T09:44:58.074Z,100.00
2019-03-11T09:46:02.420Z,100.00
2019-03-11T09:47:08.085Z,99.94
2019-03-11T09:48:10.978Z,99.75
2019-03-11T09:49:14.762Z,99.51
2019-03-11T09:50:17.632Z,99.34
2019-03-11T09:51:20.548Z,99.34
2019-03-11T09:52:23.682Z,98.29
2019-03-11T09:53:30.688Z,98.47
2019-03-11T09:54:33.877Z,98.28
2019-03-11T09:55:36.819Z,98.40
2019-03-11T09:56:43.709Z,98.20
2019-03-11T09:57:45.052Z,98.20
2019-03-11T09:58:48.869Z,97.71
2019-03-11T09:59:52.094Z,97.66
2019-03-11T10:00:55.100Z,96.69
2019-03-11T10:02:01.353Z,95.90
2019-03-11T10:03:04.866Z,95.90
2019-03-11T10:04:08.708Z,95.24
2019-03-11T10:05:11.987Z,94.50
2019-03-11T10:06:16.771Z,94.98
2019-03-11T10:07:20.697Z,94.98
2019-03-11T10:08:23.960Z,93.70
2019-03-11T10:09:26.867Z,93.70
2019-03-11T10:10:29.614Z,92.05
2019-03-11T10:11:33.242Z,92.05
2019-03-11T10:12:36.207Z,93.89
2019-03-11T10:13:39.284Z,93.63
2019-03-11T10:14:42.329Z,93.63
2019-03-11T10:15:45.215Z,92.10
2019-03-11T10:16:52.505Z,92.10
2019-03-11T10:17:55.472Z,93.68
2019-03-11T10:19:00.949Z,93.27
2019-03-11T10:20:03.793Z,91.38
2019-03-11T10:21:08.899Z,91.38
2019-03-11T10:22:11.753Z,92.98
2019-03-11T10:23:18.277Z,92.95
2019-03-11T10:24:21.001Z,92.71
2019-03-11T10:25:31.332Z,93.36
2019-03-11T10:26:34.242Z,94.05
2019-03-11T10:27:37.106Z,93.19
2019-03-11T10:28:40.049Z,93.19
2019-03-11T10:29:43.491Z,92.85
2019-03-11T10:30:46.714Z,93.85
2019-03-11T10:31:49.780Z,94.42
2019-03-11T10:32:52.666Z,94.72
2019-03-11T10:33:55.573Z,94.72
2019-03-11T10:35:00.007Z,94.27
2019-03-11T10:36:04.403Z,93.45
2019-03-11T10:37:07.281Z,93.65
2019-03-11T10:38:10.244Z,93.58
2019-03-11T10:39:13.210Z,93.58
2019-03-11T10:40:23.728Z,93.52
2019-03-11T10:41:26.984Z,93.49
2019-03-11T10:42:30.178Z,93.03
2019-03-11T10:43:33.713Z,94.26
2019-03-11T10:44:36.644Z,94.41
2019-03-11T10:45:39.576Z,94.76
2019-03-11T10:46:44.842Z,94.67
2019-03-11T10:47:49.025Z,94.98
2019-03-11T10:48:52.767Z,94.31
2019-03-11T10:49:59.576Z,93.85
2019-03-11T10:51:05.547Z,94.10
2019-03-11T10:52:11.410Z,94.18
2019-03-11T10:53:16.986Z,93.71
2019-03-11T10:54:20.093Z,93.79
2019-03-11T10:55:23.606Z,93.79
2019-03-11T10:56:26.479Z,92.64
2019-03-11T10:57:29.332Z,92.29
2019-03-11T10:58:35.015Z,92.26
2019-03-11T10:59:45.195Z,91.40
2019-03-11T11:00:50.358Z,92.24
2019-03-11T11:01:57.034Z,92.15
2019-03-11T11:03:02.129Z,91.78
2019-03-11T11:04:08.347Z,92.34
2019-03-11T11:05:11.370Z,92.14
2019-03-11T11:06:17.026Z,91.82
2019-03-11T11:07:18.953Z,91.82
2019-03-11T11:08:22.646Z,92.09
2019-03-11T11:09:25.513Z,92.09
2019-03-11T11:10:28.404Z,91.52
2019-03-11T11:11:36.260Z,92.24
2019-03-11T11:12:37.444Z,92.24
2019-03-11T11:13:43.144Z,91.84
2019-03-11T11:14:46.267Z,92.41
2019-03-11T11:15:49.084Z,92.41
2019-03-11T11:16:56.286Z,91.33
2019-03-11T11:17:59.225Z,91.17
2019-03-11T11:19:02.560Z,91.87
2019-03-11T11:20:05.741Z,91.01
2019-03-11T11:21:11.393Z,91.89
2019-03-11T11:22:14.375Z,91.89
2019-03-11T11:23:17.250Z,91.69
2019-03-11T11:24:33.144Z,91.05
2019-03-11T11:25:36.160Z,91.96
2019-03-11T11:26:46.259Z,91.93
2019-03-11T11:27:58.245Z,90.91
2019-03-11T11:29:01.242Z,91.07
2019-03-11T11:30:04.639Z,91.11
2019-03-11T11:42:42.715Z,89.32
2019-03-11T11:43:48.466Z,89.89
2019-03-11T11:44:54.386Z,88.44
2019-03-11T11:45:57.807Z,88.44
2019-03-11T11:47:00.960Z,88.00
2019-03-11T11:48:08.431Z,88.00
2019-03-11T11:49:13.271Z,88.11
2019-03-11T11:50:16.201Z,88.98
2019-03-11T11:51:19.693Z,88.50
2019-03-11T11:52:22.781Z,87.56
2019-03-11T11:53:26.629Z,86.60
2019-03-11T11:54:33.543Z,86.60
2019-03-11T11:55:37.079Z,87.50
2019-03-11T11:57:52.162Z,86.74
2019-03-11T11:58:55.595Z,86.78
2019-03-11T11:59:59.098Z,85.96
2019-03-11T12:01:04.145Z,85.80
2019-03-11T12:02:07.168Z,85.30
2019-03-11T12:03:10.155Z,85.09
2019-03-11T12:04:13.745Z,85.09
2019-03-11T12:05:16.766Z,84.06
2019-03-11T12:06:20.132Z,84.06
2019-03-11T12:07:23.134Z,84.33
2019-03-11T12:08:25.889Z,84.33
2019-03-11T12:09:30.825Z,85.04
2019-03-11T12:10:33.736Z,85.58
2019-03-11T12:11:40.689Z,85.91
2019-03-11T12:12:52.761Z,84.69
2019-03-11T12:13:57.218Z,84.36
2019-03-11T12:15:05.125Z,83.71
2019-03-11T12:16:07.953Z,84.28
2019-03-11T12:17:12.109Z,82.67
2019-03-11T12:18:17.570Z,82.67
2019-03-11T12:19:21.978Z,83.84
2019-03-11T12:20:24.727Z,82.29
2019-03-11T12:21:29.689Z,82.29
2019-03-11T12:22:35.798Z,82.24
2019-03-11T12:23:46.177Z,82.90
2019-03-11T12:24:46.454Z,83.27
2019-03-11T12:25:49.642Z,83.27
2019-03-11T12:26:52.358Z,82.91
2019-03-11T12:27:57.907Z,81.34
2019-03-11T12:28:59.855Z,81.34
2019-03-11T12:30:03.060Z,80.83
2019-03-11T12:31:05.717Z,80.83
2019-03-11T12:32:10.578Z,80.32
2019-03-11T12:33:15.615Z,80.31
2019-03-11T12:34:23.767Z,79.48
2019-03-11T12:35:27.455Z,79.01
2019-03-11T12:36:31.595Z,79.01
2019-03-11T12:37:34.681Z,80.14
2019-03-11T12:38:38.168Z,79.93
2019-03-11T12:39:40.909Z,79.52
2019-03-11T12:40:43.882Z,79.76
2019-03-11T12:41:47.219Z,79.31
2019-03-11T12:42:52.870Z,80.08
2019-03-11T12:43:59.095Z,80.65
2019-03-11T12:45:01.795Z,80.62
2019-03-11T12:46:04.829Z,81.44
2019-03-11T12:47:08.203Z,80.88
2019-03-11T12:48:14.046Z,81.39
2019-03-11T12:49:20.036Z,80.16
2019-03-11T12:50:26.305Z,79.33
2019-03-11T12:51:29.159Z,80.24
2019-03-11T12:52:34.367Z,79.75
2019-03-11T12:53:37.082Z,80.29
2019-03-11T12:54:39.951Z,80.29
2019-03-11T12:56:57.871Z,79.93
2019-03-11T12:58:00.673Z,80.28
2019-03-11T12:59:03.826Z,80.17
2019-03-11T13:00:06.994Z,79.74
2019-03-11T13:01:09.762Z,79.71
2019-03-11T13:02:12.968Z,81.28
2019-03-11T13:03:16.005Z,81.28
2019-03-11T13:04:18.869Z,80.43
2019-03-11T13:05:21.912Z,81.34
2019-03-11T13:06:28.289Z,81.34
2019-03-11T13:07:31.187Z,80.91
2019-03-11T13:08:34.340Z,80.91
2019-03-11T13:09:37.284Z,81.89
2019-03-11T13:10:40.177Z,81.85
2019-03-11T13:11:43.334Z,81.85
2019-03-11T13:12:46.310Z,81.75
2019-03-11T13:13:49.569Z,81.75
2019-03-11T13:14:52.779Z,81.90
2019-03-11T13:15:55.810Z,81.17
2019-03-11T13:16:59.101Z,81.49
2019-03-11T13:18:04.574Z,81.87
2019-03-11T13:19:13.045Z,82.93
2019-03-11T13:20:13.593Z,82.29
2019-03-11T13:21:16.924Z,80.60
2019-03-11T13:22:19.993Z,81.40
2019-03-11T13:23:27.075Z,80.07
2019-03-11T13:24:32.298Z,79.92
2019-03-11T13:25:35.493Z,79.93
2019-03-11T13:26:40.123Z,79.93
2019-03-11T13:27:43.722Z,80.32
2019-03-11T13:28:46.570Z,80.47
2019-03-11T13:29:49.422Z,80.64
2019-03-11T13:30:52.320Z,80.64
2019-03-11T13:31:56.881Z,81.89
2019-03-11T13:32:59.730Z,82.16
2019-03-11T13:34:05.940Z,82.08
2019-03-11T13:35:09.172Z,82.08
2019-03-11T13:36:11.984Z,82.95
2019-03-11T13:37:14.893Z,82.95
2019-03-11T13:38:18.040Z,83.44
2019-03-11T13:39:25.155Z,83.01
2019-03-11T13:40:28.259Z,83.01
2019-03-11T13:41:35.178Z,82.81
2019-03-11T13:42:38.009Z,80.00
2019-03-11T13:43:42.963Z,80.59
2019-03-11T13:44:46.048Z,79.32
2019-03-11T13:45:51.903Z,79.63
2019-03-11T13:46:58.147Z,79.58
2019-03-11T13:48:02.030Z,78.59
2019-03-11T13:49:07.892Z,76.29
2019-03-11T13:50:10.564Z,76.84
2019-03-11T13:51:16.318Z,76.74
2019-03-11T13:52:19.319Z,77.46
2019-03-11T13:53:22.365Z,75.50
2019-03-11T13:54:25.116Z,74.88
2019-03-11T13:55:27.848Z,74.55
2019-03-11T13:56:32.635Z,74.34
2019-03-11T13:57:36.601Z,73.77
2019-03-11T13:58:42.636Z,72.78
2019-03-11T13:59:47.516Z,72.78
2019-03-11T14:00:56.674Z,72.95
2019-03-11T14:02:00.216Z,73.71
2019-03-11T14:03:10.346Z,73.69
2019-03-11T14:04:16.580Z,73.18
2019-03-11T14:05:22.527Z,71.96
2019-03-11T14:06:25.281Z,72.40
2019-03-11T14:07:28.075Z,73.82
2019-03-11T14:08:32.711Z,73.03
2019-03-11T14:09:35.819Z,74.62
2019-03-11T14:10:39.471Z,74.75
2019-03-11T14:11:48.153Z,74.49